sensor_id;sensor_type;location;lat;lon;timestamp;P1;durP1;ratioP1;P2;durP2;ratioP2
70576;SDS011;58138;43.138;24.702;2023-08-30T00:02:05;12.85;;;9.35;;
70576;SDS011;58138;43.138;24.702;2023-08-30T00:04:30;13.75;;;8.68;;
70576;SDS011;58138;43.138;24.702;2023-08-30T00:06:56;10.93;;;8.60;;
70576;SDS011;58138;43.138;24.702;2023-08-30T00:09:22;14.13;;;8.68;;
70576;SDS011;58138;43.138;24.702;2023-08-30T00:11:47;16.13;;;9.10;;
70576;SDS011;58138;43.138;24.702;2023-08-30T00:14:13;15.57;;;8.93;;
70576;SDS011;58138;43.138;24.702;2023-08-30T00:16:38;17.27;;;9.15;;
70576;SDS011;58138;43.138;24.702;2023-08-30T00:19:04;12.57;;;9.25;;
70576;SDS011;58138;43.138;24.702;2023-08-30T00:21:30;14.30;;;9.55;;
70576;SDS011;58138;43.138;24.702;2023-08-30T00:23:55;13.38;;;9.27;;
70576;SDS011;58138;43.138;24.702;2023-08-30T00:26:21;13.32;;;9.60;;
70576;SDS011;58138;43.138;24.702;2023-08-30T00:28:47;13.30;;;8.85;;
70576;SDS011;58138;43.138;24.702;2023-08-30T00:31:12;14.15;;;9.50;;
70576;SDS011;58138;43.138;24.702;2023-08-30T00:33:38;12.25;;;9.02;;
70576;SDS011;58138;43.138;24.702;2023-08-30T00:36:04;10.63;;;8.82;;
70576;SDS011;58138;43.138;24.702;2023-08-30T00:38:30;14.63;;;9.20;;
70576;SDS011;58138;43.138;24.702;2023-08-30T00:40:58;14.70;;;10.18;;
70576;SDS011;58138;43.138;24.702;2023-08-30T00:43:24;12.40;;;9.43;;
70576;SDS011;58138;43.138;24.702;2023-08-30T00:45:50;15.35;;;9.93;;
70576;SDS011;58138;43.138;24.702;2023-08-30T00:48:16;17.00;;;9.63;;
70576;SDS011;58138;43.138;24.702;2023-08-30T00:50:43;16.23;;;10.05;;
70576;SDS011;58138;43.138;24.702;2023-08-30T00:53:09;14.43;;;9.45;;
70576;SDS011;58138;43.138;24.702;2023-08-30T00:55:35;14.57;;;9.68;;
70576;SDS011;58138;43.138;24.702;2023-08-30T00:58:02;14.68;;;9.85;;
70576;SDS011;58138;43.138;24.702;2023-08-30T01:00:31;14.15;;;9.02;;
70576;SDS011;58138;43.138;24.702;2023-08-30T01:02:59;14.25;;;9.10;;
70576;SDS011;58138;43.138;24.702;2023-08-30T01:05:25;13.32;;;9.18;;
70576;SDS011;58138;43.138;24.702;2023-08-30T01:07:50;11.63;;;9.65;;
70576;SDS011;58138;43.138;24.702;2023-08-30T01:10:17;13.52;;;10.07;;
70576;SDS011;58138;43.138;24.702;2023-08-30T01:12:45;17.23;;;10.13;;
70576;SDS011;58138;43.138;24.702;2023-08-30T01:15:20;16.15;;;9.38;;
70576;SDS011;58138;43.138;24.702;2023-08-30T01:20:16;13.98;;;9.50;;
70576;SDS011;58138;43.138;24.702;2023-08-30T01:28:05;13.05;;;9.50;;
70576;SDS011;58138;43.138;24.702;2023-08-30T01:30:32;11.55;;;9.23;;
70576;SDS011;58138;43.138;24.702;2023-08-30T01:33:02;14.48;;;9.35;;
70576;SDS011;58138;43.138;24.702;2023-08-30T01:35:29;13.13;;;9.90;;
70576;SDS011;58138;43.138;24.702;2023-08-30T01:37:58;18.45;;;10.73;;
70576;SDS011;58138;43.138;24.702;2023-08-30T01:40:25;12.95;;;10.25;;
70576;SDS011;58138;43.138;24.702;2023-08-30T01:42:52;13.40;;;9.80;;
70576;SDS011;58138;43.138;24.702;2023-08-30T01:45:18;14.95;;;9.75;;
70576;SDS011;58138;43.138;24.702;2023-08-30T01:47:45;15.07;;;9.80;;
70576;SDS011;58138;43.138;24.702;2023-08-30T01:50:11;11.00;;;9.30;;
70576;SDS011;58138;43.138;24.702;2023-08-30T01:52:37;13.65;;;10.60;;
70576;SDS011;58138;43.138;24.702;2023-08-30T01:55:03;13.20;;;9.25;;
70576;SDS011;58138;43.138;24.702;2023-08-30T01:57:30;13.80;;;9.75;;
70576;SDS011;58138;43.138;24.702;2023-08-30T01:59:55;12.85;;;9.43;;
70576;SDS011;58138;43.138;24.702;2023-08-30T02:02:21;13.30;;;9.15;;
70576;SDS011;58138;43.138;24.702;2023-08-30T02:04:46;12.88;;;10.02;;
70576;SDS011;58138;43.138;24.702;2023-08-30T02:07:48;13.38;;;9.52;;
70576;SDS011;58138;43.138;24.702;2023-08-30T02:10:35;15.20;;;9.70;;
70576;SDS011;58138;43.138;24.702;2023-08-30T02:13:03;15.05;;;10.23;;
70576;SDS011;58138;43.138;24.702;2023-08-30T02:15:30;16.25;;;10.13;;
70576;SDS011;58138;43.138;24.702;2023-08-30T02:17:57;14.32;;;10.05;;
70576;SDS011;58138;43.138;24.702;2023-08-30T02:20:23;18.00;;;10.77;;
70576;SDS011;58138;43.138;24.702;2023-08-30T02:22:48;13.98;;;9.45;;
70576;SDS011;58138;43.138;24.702;2023-08-30T02:25:14;12.73;;;10.63;;
70576;SDS011;58138;43.138;24.702;2023-08-30T02:27:39;12.63;;;9.88;;
70576;SDS011;58138;43.138;24.702;2023-08-30T02:30:05;18.42;;;10.60;;
70576;SDS011;58138;43.138;24.702;2023-08-30T02:32:32;14.73;;;10.70;;
70576;SDS011;58138;43.138;24.702;2023-08-30T02:34:57;23.45;;;11.15;;
70576;SDS011;58138;43.138;24.702;2023-08-30T02:37:23;17.48;;;9.50;;
70576;SDS011;58138;43.138;24.702;2023-08-30T02:39:49;18.58;;;10.57;;
70576;SDS011;58138;43.138;24.702;2023-08-30T02:42:14;16.52;;;10.30;;
70576;SDS011;58138;43.138;24.702;2023-08-30T02:44:40;20.45;;;9.93;;
70576;SDS011;58138;43.138;24.702;2023-08-30T02:47:06;14.95;;;9.68;;
70576;SDS011;58138;43.138;24.702;2023-08-30T02:49:31;12.70;;;9.43;;
70576;SDS011;58138;43.138;24.702;2023-08-30T02:51:57;12.43;;;9.23;;
70576;SDS011;58138;43.138;24.702;2023-08-30T02:54:22;14.50;;;9.90;;
70576;SDS011;58138;43.138;24.702;2023-08-30T02:56:48;13.35;;;9.85;;
70576;SDS011;58138;43.138;24.702;2023-08-30T02:59:13;16.58;;;10.75;;
70576;SDS011;58138;43.138;24.702;2023-08-30T03:01:39;14.98;;;10.32;;
70576;SDS011;58138;43.138;24.702;2023-08-30T03:04:05;16.73;;;11.18;;
70576;SDS011;58138;43.138;24.702;2023-08-30T03:06:34;12.07;;;10.38;;
70576;SDS011;58138;43.138;24.702;2023-08-30T03:09:00;11.60;;;10.00;;
70576;SDS011;58138;43.138;24.702;2023-08-30T03:11:27;16.05;;;10.55;;
70576;SDS011;58138;43.138;24.702;2023-08-30T03:13:53;13.10;;;10.35;;
70576;SDS011;58138;43.138;24.702;2023-08-30T03:16:19;13.93;;;10.30;;
70576;SDS011;58138;43.138;24.702;2023-08-30T03:18:46;16.92;;;11.48;;
70576;SDS011;58138;43.138;24.702;2023-08-30T03:21:12;14.65;;;12.18;;
70576;SDS011;58138;43.138;24.702;2023-08-30T03:23:39;16.55;;;13.07;;
70576;SDS011;58138;43.138;24.702;2023-08-30T03:28:34;14.80;;;11.00;;
70576;SDS011;58138;43.138;24.702;2023-08-30T03:30:59;19.38;;;11.13;;
70576;SDS011;58138;43.138;24.702;2023-08-30T03:33:25;18.33;;;13.13;;
70576;SDS011;58138;43.138;24.702;2023-08-30T03:35:50;17.77;;;12.23;;
70576;SDS011;58138;43.138;24.702;2023-08-30T03:38:16;16.90;;;12.23;;
70576;SDS011;58138;43.138;24.702;2023-08-30T03:40:41;17.98;;;11.80;;
70576;SDS011;58138;43.138;24.702;2023-08-30T03:43:07;22.20;;;13.75;;
70576;SDS011;58138;43.138;24.702;2023-08-30T03:45:36;15.63;;;11.18;;
70576;SDS011;58138;43.138;24.702;2023-08-30T03:48:02;15.70;;;11.02;;
70576;SDS011;58138;43.138;24.702;2023-08-30T03:50:29;13.45;;;11.23;;
70576;SDS011;58138;43.138;24.702;2023-08-30T03:52:54;15.10;;;11.25;;
70576;SDS011;58138;43.138;24.702;2023-08-30T03:55:20;14.95;;;11.43;;
70576;SDS011;58138;43.138;24.702;2023-08-30T03:57:46;15.23;;;10.85;;
70576;SDS011;58138;43.138;24.702;2023-08-30T04:00:12;16.27;;;10.88;;
70576;SDS011;58138;43.138;24.702;2023-08-30T04:02:37;18.63;;;12.50;;
70576;SDS011;58138;43.138;24.702;2023-08-30T04:05:03;17.02;;;11.50;;
70576;SDS011;58138;43.138;24.702;2023-08-30T04:07:33;20.95;;;15.13;;
70576;SDS011;58138;43.138;24.702;2023-08-30T04:09:58;15.70;;;11.25;;
70576;SDS011;58138;43.138;24.702;2023-08-30T04:12:24;16.60;;;12.52;;
70576;SDS011;58138;43.138;24.702;2023-08-30T04:14:50;14.40;;;11.30;;
70576;SDS011;58138;43.138;24.702;2023-08-30T04:17:15;16.10;;;11.65;;
70576;SDS011;58138;43.138;24.702;2023-08-30T04:19:41;15.55;;;11.55;;
70576;SDS011;58138;43.138;24.702;2023-08-30T04:22:06;17.25;;;12.23;;
70576;SDS011;58138;43.138;24.702;2023-08-30T04:24:32;18.20;;;11.98;;
70576;SDS011;58138;43.138;24.702;2023-08-30T04:26:57;13.50;;;10.65;;
70576;SDS011;58138;43.138;24.702;2023-08-30T04:29:23;13.52;;;10.88;;
70576;SDS011;58138;43.138;24.702;2023-08-30T04:31:49;18.60;;;12.55;;
70576;SDS011;58138;43.138;24.702;2023-08-30T04:34:14;16.70;;;11.50;;
70576;SDS011;58138;43.138;24.702;2023-08-30T04:36:41;14.52;;;11.48;;
70576;SDS011;58138;43.138;24.702;2023-08-30T04:39:06;18.08;;;11.60;;
70576;SDS011;58138;43.138;24.702;2023-08-30T04:41:32;18.20;;;12.68;;
70576;SDS011;58138;43.138;24.702;2023-08-30T04:43:58;14.52;;;11.02;;
70576;SDS011;58138;43.138;24.702;2023-08-30T04:46:24;14.57;;;10.98;;
70576;SDS011;58138;43.138;24.702;2023-08-30T04:48:50;17.63;;;11.20;;
70576;SDS011;58138;43.138;24.702;2023-08-30T04:51:15;17.63;;;11.07;;
70576;SDS011;58138;43.138;24.702;2023-08-30T04:53:41;14.05;;;10.95;;
70576;SDS011;58138;43.138;24.702;2023-08-30T04:56:13;18.95;;;11.48;;
70576;SDS011;58138;43.138;24.702;2023-08-30T04:58:39;14.57;;;10.90;;
70576;SDS011;58138;43.138;24.702;2023-08-30T05:01:05;14.60;;;10.75;;
70576;SDS011;58138;43.138;24.702;2023-08-30T05:03:32;13.35;;;10.70;;
70576;SDS011;58138;43.138;24.702;2023-08-30T05:05:57;13.48;;;10.85;;
70576;SDS011;58138;43.138;24.702;2023-08-30T05:08:23;16.75;;;11.75;;
70576;SDS011;58138;43.138;24.702;2023-08-30T05:10:48;16.77;;;10.88;;
70576;SDS011;58138;43.138;24.702;2023-08-30T05:13:15;18.20;;;10.63;;
70576;SDS011;58138;43.138;24.702;2023-08-30T05:15:41;15.05;;;11.32;;
70576;SDS011;58138;43.138;24.702;2023-08-30T05:18:07;16.55;;;10.68;;
70576;SDS011;58138;43.138;24.702;2023-08-30T05:20:32;13.48;;;11.13;;
70576;SDS011;58138;43.138;24.702;2023-08-30T05:22:58;14.85;;;10.57;;
70576;SDS011;58138;43.138;24.702;2023-08-30T05:25:23;17.23;;;10.27;;
70576;SDS011;58138;43.138;24.702;2023-08-30T05:27:49;18.23;;;9.40;;
70576;SDS011;58138;43.138;24.702;2023-08-30T05:30:15;13.20;;;10.38;;
70576;SDS011;58138;43.138;24.702;2023-08-30T05:32:41;13.30;;;9.75;;
70576;SDS011;58138;43.138;24.702;2023-08-30T05:35:07;16.15;;;9.57;;
70576;SDS011;58138;43.138;24.702;2023-08-30T05:37:32;14.43;;;10.25;;
70576;SDS011;58138;43.138;24.702;2023-08-30T05:39:58;20.65;;;10.70;;
70576;SDS011;58138;43.138;24.702;2023-08-30T05:42:24;12.57;;;9.68;;
70576;SDS011;58138;43.138;24.702;2023-08-30T05:44:49;15.43;;;10.27;;
70576;SDS011;58138;43.138;24.702;2023-08-30T05:47:15;13.13;;;10.43;;
70576;SDS011;58138;43.138;24.702;2023-08-30T05:49:42;11.90;;;9.30;;
70576;SDS011;58138;43.138;24.702;2023-08-30T05:52:07;12.98;;;9.63;;
70576;SDS011;58138;43.138;24.702;2023-08-30T05:54:33;11.35;;;9.05;;
70576;SDS011;58138;43.138;24.702;2023-08-30T05:56:59;11.63;;;9.48;;
70576;SDS011;58138;43.138;24.702;2023-08-30T05:59:25;12.43;;;9.25;;
70576;SDS011;58138;43.138;24.702;2023-08-30T06:01:50;13.02;;;9.75;;
70576;SDS011;58138;43.138;24.702;2023-08-30T06:04:16;13.02;;;8.98;;
70576;SDS011;58138;43.138;24.702;2023-08-30T06:06:41;14.38;;;9.38;;
70576;SDS011;58138;43.138;24.702;2023-08-30T06:09:07;12.35;;;9.70;;
70576;SDS011;58138;43.138;24.702;2023-08-30T06:11:33;11.63;;;9.32;;
70576;SDS011;58138;43.138;24.702;2023-08-30T06:13:58;11.18;;;9.07;;
70576;SDS011;58138;43.138;24.702;2023-08-30T06:16:24;19.10;;;9.63;;
70576;SDS011;58138;43.138;24.702;2023-08-30T06:18:50;12.95;;;9.30;;
70576;SDS011;58138;43.138;24.702;2023-08-30T06:21:16;10.85;;;8.60;;
70576;SDS011;58138;43.138;24.702;2023-08-30T06:23:41;14.23;;;9.30;;
70576;SDS011;58138;43.138;24.702;2023-08-30T06:26:07;13.27;;;9.52;;
70576;SDS011;58138;43.138;24.702;2023-08-30T06:28:33;16.35;;;9.43;;
70576;SDS011;58138;43.138;24.702;2023-08-30T06:30:58;12.75;;;8.60;;
70576;SDS011;58138;43.138;24.702;2023-08-30T06:33:24;12.73;;;9.48;;
70576;SDS011;58138;43.138;24.702;2023-08-30T06:35:50;14.48;;;9.23;;
70576;SDS011;58138;43.138;24.702;2023-08-30T06:38:16;10.60;;;9.02;;
70576;SDS011;58138;43.138;24.702;2023-08-30T06:40:47;13.60;;;9.30;;
70576;SDS011;58138;43.138;24.702;2023-08-30T06:43:14;14.55;;;8.90;;
70576;SDS011;58138;43.138;24.702;2023-08-30T06:45:40;13.15;;;9.38;;
70576;SDS011;58138;43.138;24.702;2023-08-30T06:48:06;10.45;;;9.27;;
70576;SDS011;58138;43.138;24.702;2023-08-30T06:50:35;13.75;;;9.18;;
70576;SDS011;58138;43.138;24.702;2023-08-30T06:53:02;15.30;;;8.73;;
70576;SDS011;58138;43.138;24.702;2023-08-30T06:55:28;16.08;;;8.77;;
70576;SDS011;58138;43.138;24.702;2023-08-30T06:57:54;11.32;;;8.60;;
70576;SDS011;58138;43.138;24.702;2023-08-30T07:00:20;12.18;;;8.10;;
70576;SDS011;58138;43.138;24.702;2023-08-30T07:02:45;16.70;;;8.43;;
70576;SDS011;58138;43.138;24.702;2023-08-30T07:05:11;13.63;;;8.63;;
70576;SDS011;58138;43.138;24.702;2023-08-30T07:07:37;11.55;;;8.18;;
70576;SDS011;58138;43.138;24.702;2023-08-30T07:10:03;12.10;;;7.63;;
70576;SDS011;58138;43.138;24.702;2023-08-30T07:12:29;10.27;;;7.93;;
70576;SDS011;58138;43.138;24.702;2023-08-30T07:14:55;13.52;;;7.88;;
70576;SDS011;58138;43.138;24.702;2023-08-30T07:17:20;12.63;;;8.35;;
70576;SDS011;58138;43.138;24.702;2023-08-30T07:19:46;13.20;;;8.43;;
70576;SDS011;58138;43.138;24.702;2023-08-30T07:22:12;11.85;;;7.28;;
70576;SDS011;58138;43.138;24.702;2023-08-30T07:24:38;14.15;;;7.47;;
70576;SDS011;58138;43.138;24.702;2023-08-30T07:27:03;11.20;;;7.25;;
70576;SDS011;58138;43.138;24.702;2023-08-30T07:29:29;14.43;;;7.15;;
70576;SDS011;58138;43.138;24.702;2023-08-30T07:31:55;10.77;;;6.57;;
70576;SDS011;58138;43.138;24.702;2023-08-30T07:34:20;15.05;;;7.00;;
70576;SDS011;58138;43.138;24.702;2023-08-30T07:36:46;9.38;;;7.60;;
70576;SDS011;58138;43.138;24.702;2023-08-30T07:39:11;8.38;;;6.47;;
70576;SDS011;58138;43.138;24.702;2023-08-30T07:41:37;8.02;;;6.35;;
70576;SDS011;58138;43.138;24.702;2023-08-30T07:44:03;7.57;;;5.55;;
70576;SDS011;58138;43.138;24.702;2023-08-30T07:46:29;8.85;;;6.57;;
70576;SDS011;58138;43.138;24.702;2023-08-30T07:48:54;9.90;;;6.05;;
70576;SDS011;58138;43.138;24.702;2023-08-30T07:51:20;9.77;;;5.68;;
70576;SDS011;58138;43.138;24.702;2023-08-30T07:53:46;9.80;;;5.88;;
70576;SDS011;58138;43.138;24.702;2023-08-30T07:56:12;9.45;;;5.53;;
70576;SDS011;58138;43.138;24.702;2023-08-30T07:58:37;6.50;;;5.35;;
70576;SDS011;58138;43.138;24.702;2023-08-30T08:01:03;7.22;;;5.50;;
70576;SDS011;58138;43.138;24.702;2023-08-30T08:03:28;6.45;;;4.95;;
70576;SDS011;58138;43.138;24.702;2023-08-30T08:05:54;11.13;;;5.53;;
70576;SDS011;58138;43.138;24.702;2023-08-30T08:08:19;9.95;;;5.35;;
70576;SDS011;58138;43.138;24.702;2023-08-30T08:10:45;15.73;;;9.88;;
70576;SDS011;58138;43.138;24.702;2023-08-30T08:13:11;6.25;;;5.20;;
70576;SDS011;58138;43.138;24.702;2023-08-30T08:15:37;12.38;;;4.72;;
70576;SDS011;58138;43.138;24.702;2023-08-30T08:18:03;11.38;;;5.13;;
70576;SDS011;58138;43.138;24.702;2023-08-30T08:20:29;15.63;;;5.82;;
70576;SDS011;58138;43.138;24.702;2023-08-30T08:22:55;7.55;;;5.10;;
70576;SDS011;58138;43.138;24.702;2023-08-30T08:25:21;7.68;;;4.60;;
70576;SDS011;58138;43.138;24.702;2023-08-30T08:27:48;10.95;;;4.63;;
70576;SDS011;58138;43.138;24.702;2023-08-30T08:30:15;9.07;;;4.78;;
70576;SDS011;58138;43.138;24.702;2023-08-30T08:32:41;9.13;;;4.38;;
70576;SDS011;58138;43.138;24.702;2023-08-30T08:35:07;7.72;;;4.45;;
70576;SDS011;58138;43.138;24.702;2023-08-30T08:37:33;8.60;;;4.70;;
70576;SDS011;58138;43.138;24.702;2023-08-30T08:39:58;7.95;;;4.28;;
70576;SDS011;58138;43.138;24.702;2023-08-30T08:42:24;8.90;;;4.78;;
70576;SDS011;58138;43.138;24.702;2023-08-30T08:44:53;8.65;;;4.43;;
70576;SDS011;58138;43.138;24.702;2023-08-30T08:47:20;7.10;;;4.57;;
70576;SDS011;58138;43.138;24.702;2023-08-30T08:49:49;11.85;;;4.78;;
70576;SDS011;58138;43.138;24.702;2023-08-30T08:52:15;8.50;;;4.35;;
70576;SDS011;58138;43.138;24.702;2023-08-30T08:54:41;8.10;;;4.68;;
70576;SDS011;58138;43.138;24.702;2023-08-30T08:57:08;9.27;;;4.63;;
70576;SDS011;58138;43.138;24.702;2023-08-30T08:59:34;8.45;;;4.55;;
70576;SDS011;58138;43.138;24.702;2023-08-30T09:02:00;8.00;;;4.60;;
70576;SDS011;58138;43.138;24.702;2023-08-30T09:04:26;11.07;;;4.95;;
70576;SDS011;58138;43.138;24.702;2023-08-30T09:06:51;12.68;;;4.78;;
70576;SDS011;58138;43.138;24.702;2023-08-30T09:09:17;8.63;;;4.47;;
70576;SDS011;58138;43.138;24.702;2023-08-30T09:11:43;12.07;;;5.55;;
70576;SDS011;58138;43.138;24.702;2023-08-30T09:14:08;8.18;;;4.55;;
70576;SDS011;58138;43.138;24.702;2023-08-30T09:16:34;8.25;;;4.55;;
70576;SDS011;58138;43.138;24.702;2023-08-30T09:19:01;7.25;;;4.40;;
70576;SDS011;58138;43.138;24.702;2023-08-30T09:21:28;8.52;;;6.50;;
70576;SDS011;58138;43.138;24.702;2023-08-30T09:24:11;9.98;;;4.53;;
70576;SDS011;58138;43.138;24.702;2023-08-30T09:26:37;5.57;;;4.60;;
70576;SDS011;58138;43.138;24.702;2023-08-30T09:29:04;12.10;;;4.95;;
70576;SDS011;58138;43.138;24.702;2023-08-30T09:31:34;6.13;;;4.25;;
70576;SDS011;58138;43.138;24.702;2023-08-30T09:34:01;8.67;;;4.43;;
70576;SDS011;58138;43.138;24.702;2023-08-30T09:36:32;8.25;;;4.50;;
70576;SDS011;58138;43.138;24.702;2023-08-30T09:39:08;9.50;;;4.07;;
70576;SDS011;58138;43.138;24.702;2023-08-30T09:41:35;6.70;;;4.10;;
70576;SDS011;58138;43.138;24.702;2023-08-30T09:44:16;7.15;;;4.25;;
70576;SDS011;58138;43.138;24.702;2023-08-30T09:46:43;7.57;;;4.20;;
70576;SDS011;58138;43.138;24.702;2023-08-30T09:49:18;8.52;;;4.20;;
70576;SDS011;58138;43.138;24.702;2023-08-30T09:51:47;7.07;;;4.50;;
70576;SDS011;58138;43.138;24.702;2023-08-30T09:54:18;8.02;;;4.88;;
70576;SDS011;58138;43.138;24.702;2023-08-30T09:56:44;6.13;;;4.20;;
70576;SDS011;58138;43.138;24.702;2023-08-30T09:59:11;7.18;;;4.50;;
70576;SDS011;58138;43.138;24.702;2023-08-30T10:01:38;9.93;;;4.50;;
70576;SDS011;58138;43.138;24.702;2023-08-30T10:04:04;8.38;;;4.38;;
70576;SDS011;58138;43.138;24.702;2023-08-30T10:06:30;6.38;;;4.50;;
70576;SDS011;58138;43.138;24.702;2023-08-30T10:08:56;5.78;;;4.55;;
70576;SDS011;58138;43.138;24.702;2023-08-30T10:11:21;7.25;;;4.15;;
70576;SDS011;58138;43.138;24.702;2023-08-30T10:13:49;8.38;;;4.05;;
70576;SDS011;58138;43.138;24.702;2023-08-30T10:16:22;9.30;;;4.20;;
70576;SDS011;58138;43.138;24.702;2023-08-30T10:18:52;7.10;;;4.30;;
70576;SDS011;58138;43.138;24.702;2023-08-30T10:21:20;9.90;;;4.75;;
70576;SDS011;58138;43.138;24.702;2023-08-30T10:23:48;6.65;;;4.55;;
70576;SDS011;58138;43.138;24.702;2023-08-30T10:26:15;10.20;;;4.55;;
70576;SDS011;58138;43.138;24.702;2023-08-30T10:28:42;7.95;;;4.75;;
70576;SDS011;58138;43.138;24.702;2023-08-30T10:31:07;8.65;;;4.10;;
70576;SDS011;58138;43.138;24.702;2023-08-30T10:33:44;8.52;;;4.45;;
70576;SDS011;58138;43.138;24.702;2023-08-30T10:36:12;6.68;;;4.10;;
70576;SDS011;58138;43.138;24.702;2023-08-30T10:38:48;9.93;;;4.20;;
70576;SDS011;58138;43.138;24.702;2023-08-30T10:41:20;7.28;;;4.63;;
70576;SDS011;58138;43.138;24.702;2023-08-30T10:43:49;10.95;;;4.30;;
70576;SDS011;58138;43.138;24.702;2023-08-30T10:46:16;8.63;;;4.13;;
70576;SDS011;58138;43.138;24.702;2023-08-30T10:48:42;9.93;;;4.32;;
70576;SDS011;58138;43.138;24.702;2023-08-30T10:51:22;9.82;;;4.45;;
70576;SDS011;58138;43.138;24.702;2023-08-30T10:54:09;5.95;;;3.92;;
70576;SDS011;58138;43.138;24.702;2023-08-30T10:56:48;7.00;;;4.15;;
70576;SDS011;58138;43.138;24.702;2023-08-30T10:59:17;7.82;;;4.20;;
70576;SDS011;58138;43.138;24.702;2023-08-30T11:01:47;8.07;;;4.13;;
70576;SDS011;58138;43.138;24.702;2023-08-30T11:04:14;5.25;;;4.10;;
70576;SDS011;58138;43.138;24.702;2023-08-30T11:06:41;8.27;;;4.28;;
70576;SDS011;58138;43.138;24.702;2023-08-30T11:09:08;7.57;;;4.53;;
70576;SDS011;58138;43.138;24.702;2023-08-30T11:11:36;9.10;;;4.80;;
70576;SDS011;58138;43.138;24.702;2023-08-30T11:14:08;9.73;;;4.57;;
70576;SDS011;58138;43.138;24.702;2023-08-30T11:16:34;8.82;;;4.80;;
70576;SDS011;58138;43.138;24.702;2023-08-30T11:19:01;10.15;;;4.70;;
70576;SDS011;58138;43.138;24.702;2023-08-30T11:21:28;6.13;;;4.88;;
70576;SDS011;58138;43.138;24.702;2023-08-30T11:23:55;7.47;;;5.10;;
70576;SDS011;58138;43.138;24.702;2023-08-30T11:26:21;7.57;;;4.72;;
70576;SDS011;58138;43.138;24.702;2023-08-30T11:28:46;6.88;;;4.55;;
70576;SDS011;58138;43.138;24.702;2023-08-30T11:31:23;6.80;;;4.50;;
70576;SDS011;58138;43.138;24.702;2023-08-30T11:33:53;6.25;;;4.68;;
70576;SDS011;58138;43.138;24.702;2023-08-30T11:36:20;8.85;;;4.93;;
70576;SDS011;58138;43.138;24.702;2023-08-30T11:38:50;11.13;;;5.40;;
70576;SDS011;58138;43.138;24.702;2023-08-30T11:41:16;8.90;;;4.88;;
70576;SDS011;58138;43.138;24.702;2023-08-30T11:43:42;9.00;;;4.40;;
70576;SDS011;58138;43.138;24.702;2023-08-30T11:46:08;6.00;;;4.50;;
70576;SDS011;58138;43.138;24.702;2023-08-30T11:48:34;6.53;;;4.10;;
70576;SDS011;58138;43.138;24.702;2023-08-30T11:51:00;6.93;;;3.83;;
70576;SDS011;58138;43.138;24.702;2023-08-30T11:53:26;8.43;;;4.40;;
70576;SDS011;58138;43.138;24.702;2023-08-30T11:55:53;6.15;;;3.92;;
70576;SDS011;58138;43.138;24.702;2023-08-30T11:58:18;5.68;;;4.13;;
70576;SDS011;58138;43.138;24.702;2023-08-30T12:00:44;8.23;;;3.92;;
70576;SDS011;58138;43.138;24.702;2023-08-30T12:03:13;6.25;;;4.57;;
70576;SDS011;58138;43.138;24.702;2023-08-30T12:05:45;9.52;;;4.55;;
70576;SDS011;58138;43.138;24.702;2023-08-30T12:08:21;7.75;;;4.38;;
70576;SDS011;58138;43.138;24.702;2023-08-30T12:10:49;8.20;;;4.90;;
70576;SDS011;58138;43.138;24.702;2023-08-30T12:15:47;7.75;;;4.90;;
70576;SDS011;58138;43.138;24.702;2023-08-30T12:18:12;8.27;;;4.55;;
70576;SDS011;58138;43.138;24.702;2023-08-30T12:20:38;6.95;;;4.60;;
70576;SDS011;58138;43.138;24.702;2023-08-30T12:23:03;10.55;;;5.03;;
70576;SDS011;58138;43.138;24.702;2023-08-30T12:25:29;6.55;;;4.78;;
70576;SDS011;58138;43.138;24.702;2023-08-30T12:27:55;7.90;;;4.20;;
70576;SDS011;58138;43.138;24.702;2023-08-30T12:30:21;8.18;;;4.70;;
70576;SDS011;58138;43.138;24.702;2023-08-30T12:32:47;6.45;;;4.38;;
70576;SDS011;58138;43.138;24.702;2023-08-30T12:35:13;7.65;;;4.72;;
70576;SDS011;58138;43.138;24.702;2023-08-30T12:37:39;7.55;;;4.75;;
70576;SDS011;58138;43.138;24.702;2023-08-30T12:40:05;9.93;;;8.52;;
70576;SDS011;58138;43.138;24.702;2023-08-30T12:42:31;7.97;;;5.32;;
70576;SDS011;58138;43.138;24.702;2023-08-30T12:44:57;10.73;;;4.80;;
70576;SDS011;58138;43.138;24.702;2023-08-30T12:47:23;7.47;;;5.07;;
70576;SDS011;58138;43.138;24.702;2023-08-30T12:49:48;6.68;;;5.00;;
70576;SDS011;58138;43.138;24.702;2023-08-30T12:52:14;8.77;;;5.18;;
70576;SDS011;58138;43.138;24.702;2023-08-30T12:54:41;6.05;;;4.70;;
70576;SDS011;58138;43.138;24.702;2023-08-30T12:57:06;8.93;;;5.30;;
70576;SDS011;58138;43.138;24.702;2023-08-30T12:59:32;8.13;;;5.30;;
70576;SDS011;58138;43.138;24.702;2023-08-30T13:01:57;8.75;;;5.50;;
70576;SDS011;58138;43.138;24.702;2023-08-30T13:04:24;6.70;;;4.75;;
70576;SDS011;58138;43.138;24.702;2023-08-30T13:06:49;6.68;;;5.38;;
70576;SDS011;58138;43.138;24.702;2023-08-30T13:09:16;9.15;;;4.90;;
70576;SDS011;58138;43.138;24.702;2023-08-30T13:11:41;10.05;;;4.97;;
70576;SDS011;58138;43.138;24.702;2023-08-30T13:14:07;9.38;;;4.93;;
70576;SDS011;58138;43.138;24.702;2023-08-30T13:16:32;6.78;;;5.20;;
70576;SDS011;58138;43.138;24.702;2023-08-30T13:18:58;9.07;;;4.72;;
70576;SDS011;58138;43.138;24.702;2023-08-30T13:21:24;9.07;;;5.00;;
70576;SDS011;58138;43.138;24.702;2023-08-30T13:23:49;8.55;;;5.30;;
70576;SDS011;58138;43.138;24.702;2023-08-30T13:26:15;11.65;;;5.40;;
70576;SDS011;58138;43.138;24.702;2023-08-30T13:28:41;10.45;;;5.20;;
70576;SDS011;58138;43.138;24.702;2023-08-30T13:31:07;12.88;;;5.85;;
70576;SDS011;58138;43.138;24.702;2023-08-30T13:33:33;9.80;;;5.95;;
70576;SDS011;58138;43.138;24.702;2023-08-30T13:35:58;14.98;;;7.05;;
70576;SDS011;58138;43.138;24.702;2023-08-30T13:38:24;11.05;;;7.05;;
70576;SDS011;58138;43.138;24.702;2023-08-30T13:40:50;14.10;;;8.15;;
70576;SDS011;58138;43.138;24.702;2023-08-30T13:43:15;14.38;;;7.55;;
70576;SDS011;58138;43.138;24.702;2023-08-30T13:45:42;15.20;;;7.78;;
70576;SDS011;58138;43.138;24.702;2023-08-30T13:48:11;15.13;;;8.35;;
70576;SDS011;58138;43.138;24.702;2023-08-30T13:50:40;13.05;;;8.10;;
70576;SDS011;58138;43.138;24.702;2023-08-30T13:53:06;16.75;;;7.78;;
70576;SDS011;58138;43.138;24.702;2023-08-30T13:55:32;9.52;;;7.13;;
70576;SDS011;58138;43.138;24.702;2023-08-30T13:57:58;13.23;;;8.20;;
70576;SDS011;58138;43.138;24.702;2023-08-30T14:00:23;13.07;;;9.25;;
70576;SDS011;58138;43.138;24.702;2023-08-30T14:02:49;16.40;;;8.68;;
70576;SDS011;58138;43.138;24.702;2023-08-30T14:05:16;12.63;;;8.32;;
70576;SDS011;58138;43.138;24.702;2023-08-30T14:07:43;10.88;;;8.32;;
70576;SDS011;58138;43.138;24.702;2023-08-30T14:10:09;12.57;;;8.48;;
70576;SDS011;58138;43.138;24.702;2023-08-30T14:12:36;13.68;;;8.52;;
70576;SDS011;58138;43.138;24.702;2023-08-30T14:15:02;17.30;;;11.00;;
70576;SDS011;58138;43.138;24.702;2023-08-30T14:17:28;12.63;;;9.05;;
70576;SDS011;58138;43.138;24.702;2023-08-30T14:19:53;11.25;;;7.78;;
70576;SDS011;58138;43.138;24.702;2023-08-30T14:22:19;9.70;;;7.85;;
70576;SDS011;58138;43.138;24.702;2023-08-30T14:24:45;9.55;;;8.55;;
70576;SDS011;58138;43.138;24.702;2023-08-30T14:27:11;10.20;;;8.27;;
70576;SDS011;58138;43.138;24.702;2023-08-30T14:29:36;16.73;;;8.90;;
70576;SDS011;58138;43.138;24.702;2023-08-30T14:32:02;14.43;;;8.90;;
70576;SDS011;58138;43.138;24.702;2023-08-30T14:34:28;17.85;;;9.70;;